Time;durP1;ratioP1;P1;durP2;ratioP2;P2;SDS_P1;SDS_P2;PMS_P1;PMS_P2;Temp;Humidity;BMP_temperature;BMP_pressure;BME280_temperature;BME280_humidity;BME280_pressure;Samples;Min_cycle;Max_cycle;Signal;HPM_P1;HPM_P2
2023/08/17 00:00:30;;;;;;;4.88;2.90;;;;;;;20.11;81.67;101170.25;4963429;28;20205;-75
2023/08/17 00:02:56;;;;;;;2.90;2.60;;;;;;;20.11;82.22;101183.78;4961673;28;20215;-76
2023/08/17 00:05:23;;;;;;;4.87;3.00;;;;;;;20.10;83.46;101182.06;4964908;28;20234;-75
2023/08/17 00:07:49;;;;;;;8.27;2.80;;;;;;;20.10;84.08;101190.19;4965695;28;20212;-77
2023/08/17 00:10:16;;;;;;;4.53;3.05;;;;;;;20.10;85.17;101193.75;4960455;28;20232;-77
2023/08/17 00:12:42;;;;;;;3.70;2.70;;;;;;;20.10;85.43;101190.19;4964680;28;20830;-78
2023/08/17 00:15:09;;;;;;;5.90;3.27;;;;;;;20.07;85.72;101191.31;4970644;28;20228;-76
2023/08/17 00:17:37;;;;;;;4.27;3.40;;;;;;;20.07;86.64;101182.38;4961230;28;20210;-75
2023/08/17 00:20:04;;;;;;;4.20;3.03;;;;;;;20.05;86.22;101177.13;4965197;28;20215;-78
2023/08/17 00:22:31;;;;;;;4.75;3.13;;;;;;;20.01;85.92;101166.75;4959505;28;20488;-76
2023/08/17 00:24:57;;;;;;;4.13;2.83;;;;;;;19.96;86.08;101164.47;4971630;28;20729;-76
2023/08/17 00:27:24;;;;;;;5.00;3.15;;;;;;;19.92;86.27;101165.75;4962614;28;20210;-77
2023/08/17 00:29:51;;;;;;;9.10;3.37;;;;;;;19.90;87.47;101167.75;4960036;28;20212;-76
2023/08/17 00:32:17;;;;;;;6.17;3.50;;;;;;;19.88;87.66;101164.34;4962737;28;20232;-78
2023/08/17 00:34:45;;;;;;;6.10;3.20;;;;;;;19.87;88.54;101164.50;4962966;28;20645;-76
2023/08/17 00:37:11;;;;;;;4.00;3.63;;;;;;;19.87;89.29;101161.78;4961555;28;20213;-78
2023/08/17 00:39:38;;;;;;;3.97;2.97;;;;;;;19.86;89.78;101158.25;4962894;28;20217;-77
2023/08/17 00:42:04;;;;;;;3.63;3.10;;;;;;;19.87;90.38;101161.78;4962914;28;20207;-76
2023/08/17 00:44:31;;;;;;;3.50;3.20;;;;;;;19.85;90.75;101161.09;4961963;28;20238;-77
2023/08/17 00:46:57;;;;;;;4.30;3.03;;;;;;;19.82;91.39;101164.91;4967966;28;20211;-77
2023/08/17 00:49:24;;;;;;;4.13;3.30;;;;;;;19.80;91.99;101166.91;4966553;28;20602;-77
2023/08/17 00:51:52;;;;;;;7.73;3.57;;;;;;;19.80;92.65;101169.63;4958824;28;20228;-77
2023/08/17 00:54:24;;;;;;;5.20;3.17;;;;;;;19.78;93.42;101163.50;4962843;28;20215;-77
2023/08/17 00:56:51;;;;;;;5.67;2.67;;;;;;;19.77;92.42;101162.66;4956081;28;20203;-76
2023/08/17 00:59:18;;;;;;;4.87;3.07;;;;;;;19.67;90.88;101169.91;4966166;28;20691;-77
2023/08/17 01:01:45;;;;;;;5.07;3.23;;;;;;;19.61;91.67;101167.78;4962984;28;20211;-77
2023/08/17 01:04:11;;;;;;;8.33;4.07;;;;;;;19.58;92.89;101168.06;4959047;28;20217;-77
2023/08/17 01:06:38;;;;;;;7.27;4.43;;;;;;;19.56;93.84;101185.41;4957061;28;20237;-77
2023/08/17 01:09:06;;;;;;;5.40;3.70;;;;;;;19.54;94.87;101187.38;4969242;28;20227;-76
2023/08/17 01:11:40;;;;;;;8.40;4.17;;;;;;;19.52;95.45;101213.72;4963355;28;20546;-78
2023/08/17 01:14:16;;;;;;;6.97;3.57;;;;;;;19.51;96.59;101222.81;4966592;28;20221;-76
2023/08/17 01:16:49;;;;;;;6.37;3.90;;;;;;;19.45;96.99;101205.28;4958038;28;20211;-76
2023/08/17 01:19:25;;;;;;;4.60;4.00;;;;;;;19.37;96.16;101188.91;4965190;28;20214;-77
2023/08/17 01:21:55;;;;;;;4.90;3.73;;;;;;;19.28;96.54;101181.66;4963333;28;20210;-77
2023/08/17 01:24:23;;;;;;;5.07;3.20;;;;;;;19.19;97.01;101175.25;4955802;28;20224;-76
2023/08/17 01:26:49;;;;;;;5.83;3.97;;;;;;;19.13;97.66;101156.94;4959430;28;20206;-76
2023/08/17 01:29:16;;;;;;;4.70;4.00;;;;;;;19.05;99.67;101138.72;4963864;28;21444;-76
2023/08/17 01:31:48;;;;;;;6.13;4.20;;;;;;;18.99;100.00;101131.16;4961329;28;20229;-76
2023/08/17 01:34:20;;;;;;;6.70;4.00;;;;;;;18.92;100.00;101131.88;4957703;28;20212;-77
2023/08/17 01:36:53;;;;;;;5.50;3.60;;;;;;;18.85;100.00;101153.16;4961837;28;20203;-76
2023/08/17 01:39:24;;;;;;;7.30;4.40;;;;;;;18.79;100.00;101160.97;4960214;28;20619;-76
2023/08/17 01:41:53;;;;;;;6.90;3.93;;;;;;;18.73;100.00;101154.28;4963069;28;20698;-75
2023/08/17 01:44:20;;;;;;;5.97;3.70;;;;;;;18.69;100.00;101144.75;4968038;28;20241;-77
2023/08/17 01:46:46;;;;;;;5.67;3.80;;;;;;;18.65;100.00;101141.44;4965075;28;20212;-77
2023/08/17 01:49:12;;;;;;;5.60;3.80;;;;;;;18.60;100.00;101138.34;4964218;28;20210;-76
2023/08/17 01:51:39;;;;;;;7.97;4.37;;;;;;;18.56;100.00;101141.41;4970232;28;20236;-77
2023/08/17 01:54:06;;;;;;;4.97;4.47;;;;;;;18.54;100.00;101141.53;4961709;28;20213;-75
2023/08/17 01:56:32;;;;;;;7.73;4.23;;;;;;;18.52;100.00;101140.81;4959927;28;20235;-76
2023/08/17 01:59:00;;;;;;;4.77;4.07;;;;;;;18.48;100.00;101139.38;4961599;28;20210;-76
2023/08/17 02:01:27;;;;;;;6.50;4.40;;;;;;;18.45;100.00;101145.03;4966618;28;20200;-77
2023/08/17 02:03:54;;;;;;;4.27;3.97;;;;;;;18.42;100.00;101141.78;4960532;28;20211;-76
2023/08/17 02:06:20;;;;;;;6.07;4.23;;;;;;;18.39;100.00;101141.06;4966475;28;20604;-75
2023/08/17 02:08:47;;;;;;;5.00;4.50;;;;;;;18.37;100.00;101131.38;4965356;28;20232;-76
2023/08/17 02:11:13;;;;;;;6.60;4.40;;;;;;;18.38;100.00;101138.50;4962591;28;20250;-77
2023/08/17 02:13:40;;;;;;;5.30;3.90;;;;;;;18.38;100.00;101133.09;4960659;28;20387;-76
2023/08/17 02:16:07;;;;;;;5.27;3.87;;;;;;;18.36;100.00;101119.75;4964539;28;20372;-77
2023/08/17 02:18:34;;;;;;;4.67;4.27;;;;;;;18.36;100.00;101121.59;4964084;28;20574;-76
2023/08/17 02:21:01;;;;;;;5.07;4.37;;;;;;;18.34;100.00;101116.34;4964800;28;20199;-76
2023/08/17 02:23:28;;;;;;;5.13;4.13;;;;;;;18.33;100.00;101113.75;4961265;28;20307;-76
2023/08/17 02:25:54;;;;;;;6.67;4.10;;;;;;;18.34;100.00;101110.09;4960124;28;20231;-76
2023/08/17 02:28:21;;;;;;;5.50;4.00;;;;;;;18.32;100.00;101106.66;4961774;28;20206;-77
2023/08/17 02:30:47;;;;;;;5.63;4.70;;;;;;;18.32;100.00;101115.59;4971059;28;20213;-76
2023/08/17 02:33:15;;;;;;;5.20;4.63;;;;;;;18.31;100.00;101103.13;4961237;28;20219;-76
2023/08/17 02:35:41;;;;;;;5.27;4.53;;;;;;;18.30;100.00;101096.00;4963484;28;20238;-76
2023/08/17 02:38:08;;;;;;;6.07;4.50;;;;;;;18.30;100.00;101092.47;4958569;28;20671;-76
2023/08/17 02:40:34;;;;;;;4.60;4.20;;;;;;;18.29;100.00;101098.84;4959367;28;20583;-76
2023/08/17 02:43:01;;;;;;;5.17;4.20;;;;;;;18.26;100.00;101093.75;4963794;28;20692;-77
2023/08/17 02:45:27;;;;;;;5.27;4.73;;;;;;;18.24;100.00;101088.50;4967055;28;20614;-75
2023/08/17 02:47:54;;;;;;;6.43;4.97;;;;;;;18.24;100.00;101087.63;4968112;28;20691;-78
2023/08/17 02:50:22;;;;;;;5.10;4.60;;;;;;;18.21;100.00;101083.38;4963236;28;20578;-75
2023/08/17 02:52:48;;;;;;;6.30;4.83;;;;;;;18.21;100.00;101080.66;4960498;28;20224;-76
2023/08/17 02:55:15;;;;;;;5.20;4.30;;;;;;;18.21;100.00;101069.03;4967192;28;20238;-76
2023/08/17 02:57:41;;;;;;;5.90;4.83;;;;;;;18.20;100.00;101070.88;4965949;28;20211;-77
2023/08/17 03:00:08;;;;;;;6.37;4.90;;;;;;;18.22;100.00;101062.66;4966553;28;20598;-76
2023/08/17 03:02:35;;;;;;;6.20;4.90;;;;;;;18.20;100.00;101059.22;4966849;28;20202;-76
2023/08/17 03:05:01;;;;;;;5.57;5.07;;;;;;;18.19;100.00;101054.81;4958669;28;22388;-76
2023/08/17 03:07:29;;;;;;;5.77;4.80;;;;;;;18.20;100.00;101061.94;4964791;28;20661;-78
2023/08/17 03:09:56;;;;;;;6.07;5.10;;;;;;;18.19;100.00;101058.38;4967420;28;20215;-76
2023/08/17 03:12:22;;;;;;;5.93;4.70;;;;;;;18.17;100.00;101062.19;4964624;28;20254;-75
2023/08/17 03:14:49;;;;;;;5.03;4.53;;;;;;;18.16;100.00;101064.03;4965552;28;20235;-76
2023/08/17 03:17:15;;;;;;;6.20;4.80;;;;;;;18.16;100.00;101073.97;4960892;28;20592;-78
2023/08/17 03:19:41;;;;;;;5.40;4.50;;;;;;;18.16;100.00;101072.13;4960610;28;20211;-77
2023/08/17 03:22:08;;;;;;;5.80;4.67;;;;;;;18.15;100.00;101062.31;4965298;28;20204;-77
2023/08/17 03:24:36;;;;;;;6.50;4.73;;;;;;;18.16;100.00;101071.28;4967289;28;20243;-76
2023/08/17 03:27:02;;;;;;;5.53;5.03;;;;;;;18.18;100.00;101066.59;4967046;28;20207;-75
2023/08/17 03:29:29;;;;;;;8.63;4.83;;;;;;;18.17;100.00;101063.06;4957388;28;20223;-77
2023/08/17 03:31:56;;;;;;;5.03;4.63;;;;;;;18.16;100.00;101055.09;4960351;28;20232;-76
2023/08/17 03:34:22;;;;;;;6.37;4.50;;;;;;;18.16;100.00;101047.84;4968097;28;20589;-74
2023/08/17 03:36:49;;;;;;;5.33;4.33;;;;;;;18.17;100.00;101054.09;4964332;28;20652;-76
2023/08/17 03:39:16;;;;;;;7.40;4.80;;;;;;;18.14;100.00;101055.22;4961391;28;20293;-76
2023/08/17 03:41:44;;;;;;;5.30;4.37;;;;;;;18.15;100.00;101053.38;4963712;28;20836;-75
2023/08/17 03:44:10;;;;;;;4.40;4.00;;;;;;;18.16;100.00;101060.50;4962270;28;20223;-76
2023/08/17 03:46:36;;;;;;;4.43;3.97;;;;;;;18.15;100.00;101066.88;4965890;28;20218;-77
2023/08/17 03:49:03;;;;;;;4.13;3.73;;;;;;;18.16;100.00;101065.88;4965389;28;20221;-74
2023/08/17 03:51:30;;;;;;;4.03;3.50;;;;;;;18.15;100.00;101062.31;4961234;28;20310;-76
2023/08/17 03:53:56;;;;;;;4.20;3.80;;;;;;;18.16;100.00;101061.34;4971010;28;20209;-79
2023/08/17 03:56:23;;;;;;;3.57;3.33;;;;;;;18.17;100.00;101065.75;4960468;28;20223;-75
2023/08/17 03:58:50;;;;;;;4.80;3.27;;;;;;;18.18;100.00;101070.16;4964009;28;20566;-78
2023/08/17 04:01:17;;;;;;;4.80;3.50;;;;;;;18.16;100.00;101079.34;4961933;28;20214;-75
2023/08/17 04:03:43;;;;;;;12.23;3.60;;;;;;;18.16;100.00;101082.06;4963895;28;20388;-77
2023/08/17 04:06:10;;;;;;;4.57;3.17;;;;;;;18.17;100.00;101075.66;4969083;28;20235;-76
2023/08/17 04:08:37;;;;;;;5.17;3.40;;;;;;;18.17;100.00;101086.47;4963224;28;20211;-76
2023/08/17 04:11:04;;;;;;;4.33;3.80;;;;;;;18.17;100.00;101081.91;4965705;28;20263;-76
2023/08/17 04:13:31;;;;;;;4.33;3.93;;;;;;;18.18;100.00;101090.84;4965336;28;20234;-76
2023/08/17 04:15:59;;;;;;;4.40;4.00;;;;;;;18.19;100.00;101079.09;4959091;28;20716;-75
2023/08/17 04:18:25;;;;;;;4.80;4.17;;;;;;;18.18;100.00;101093.56;4968077;28;20586;-75
2023/08/17 04:20:52;;;;;;;4.90;4.33;;;;;;;18.20;100.00;101091.59;4964453;28;20666;-76
2023/08/17 04:23:18;;;;;;;4.10;3.70;;;;;;;18.20;100.00;101096.97;4962653;28;20574;-75
2023/08/17 04:25:44;;;;;;;4.60;4.30;;;;;;;18.19;100.00;101093.44;4962172;28;20760;-75
2023/08/17 04:28:11;;;;;;;4.90;4.50;;;;;;;18.20;100.00;101102.38;4967240;28;20215;-76
2023/08/17 04:30:38;;;;;;;5.10;4.60;;;;;;;18.20;100.00;101102.38;4968933;28;20211;-75
2023/08/17 04:33:07;;;;;;;5.30;4.80;;;;;;;18.21;100.00;101101.38;4959148;28;20549;-76
2023/08/17 04:35:34;;;;;;;6.00;5.40;;;;;;;18.23;100.00;101100.25;5020625;22;20243;-83
2023/08/17 04:38:00;;;;;;;6.07;5.00;;;;;;;18.23;100.00;101100.25;5084997;28;20209;-83
2023/08/17 04:40:27;;;;;;;5.33;4.93;;;;;;;18.24;100.00;101101.97;5085389;28;20198;-82
2023/08/17 04:42:54;;;;;;;6.40;5.43;;;;;;;18.26;100.00;101097.28;5087000;28;20223;-80
2023/08/17 04:45:20;;;;;;;5.63;5.13;;;;;;;18.29;100.00;101097.00;5089379;28;20211;-79
2023/08/17 04:47:47;;;;;;;6.97;5.70;;;;;;;18.31;100.00;101095.03;5087418;28;20213;-83
2023/08/17 04:50:16;;;;;;;6.60;5.10;;;;;;;18.31;100.00;101091.47;5088752;28;20238;-81
2023/08/17 04:52:42;;;;;;;5.87;5.07;;;;;;;18.33;100.00;101098.44;5089564;28;20225;-83
2023/08/17 04:55:09;;;;;;;6.87;4.90;;;;;;;18.32;100.00;101095.88;5088998;28;20223;-82
2023/08/17 04:57:35;;;;;;;5.83;5.33;;;;;;;18.33;100.00;101098.44;5085418;28;20211;-84
2023/08/17 05:00:03;;;;;;;6.10;4.73;;;;;;;18.35;100.00;101084.81;5090815;28;20773;-81
2023/08/17 05:02:30;;;;;;;6.73;5.37;;;;;;;18.35;100.00;101090.22;5086319;28;20202;-81
2023/08/17 05:04:57;;;;;;;6.20;5.43;;;;;;;18.37;100.00;101085.53;5088705;28;20210;-81
2023/08/17 05:07:25;;;;;;;5.60;5.10;;;;;;;18.39;100.00;101094.34;5090426;28;20203;-82
2023/08/17 05:09:51;;;;;;;5.73;5.23;;;;;;;18.41;100.00;101095.06;5089544;28;20713;-83
2023/08/17 05:12:18;;;;;;;6.37;5.03;;;;;;;18.41;100.00;101100.47;5087399;28;20225;-82
2023/08/17 05:14:44;;;;;;;5.63;4.73;;;;;;;18.40;100.00;101101.47;5088229;28;20201;-84
2023/08/17 05:17:11;;;;;;;6.10;5.47;;;;;;;18.41;100.00;101102.31;5087696;28;20223;-82
2023/08/17 05:19:39;;;;;;;6.00;5.40;;;;;;;18.44;100.00;101102.91;5086738;28;20194;-81
2023/08/17 05:22:06;;;;;;;6.67;5.60;;;;;;;18.45;100.00;101101.88;5085461;28;20261;-79
2023/08/17 05:24:34;;;;;;;6.30;5.40;;;;;;;18.45;100.00;101099.19;5086833;28;20229;-82
2023/08/17 05:27:00;;;;;;;6.07;5.47;;;;;;;18.46;100.00;101100.88;5087621;28;20204;-82
2023/08/17 05:29:27;;;;;;;7.23;5.83;;;;;;;18.48;100.00;101098.06;5086572;28;20202;-80
2023/08/17 05:31:53;;;;;;;6.87;6.10;;;;;;;18.50;100.00;101099.63;5090404;28;20208;-78
2023/08/17 05:34:20;;;;;;;6.03;5.53;;;;;;;18.53;100.00;101098.50;5091036;28;20224;-80
2023/08/17 05:36:46;;;;;;;6.73;5.93;;;;;;;18.53;100.00;101096.66;5093666;28;20660;-80
2023/08/17 05:39:15;;;;;;;7.23;6.53;;;;;;;18.54;100.00;101092.97;5094253;28;20729;-83
2023/08/17 05:41:43;;;;;;;7.10;6.57;;;;;;;18.55;100.00;101094.69;5092878;28;20272;-82
2023/08/17 05:44:10;;;;;;;6.60;6.00;;;;;;;18.54;100.00;101090.28;5085835;28;20234;-81
2023/08/17 05:46:36;;;;;;;7.27;6.57;;;;;;;18.55;100.00;101086.59;5093147;28;20213;-82
2023/08/17 05:49:03;;;;;;;6.93;6.27;;;;;;;18.58;100.00;101085.47;5089063;28;20203;-81
2023/08/17 05:51:30;;;;;;;8.07;7.27;;;;;;;18.60;100.00;101088.94;5092562;28;20201;-80
2023/08/17 05:53:56;;;;;;;8.60;7.90;;;;;;;18.61;100.00;101090.63;5094038;28;20227;-81
2023/08/17 05:56:23;;;;;;;9.03;8.27;;;;;;;18.61;100.00;101091.47;5094008;28;20207;-80
2023/08/17 05:58:51;;;;;;;9.93;9.03;;;;;;;18.60;100.00;101092.47;5091573;28;20695;-80
2023/08/17 06:01:18;;;;;;;10.60;9.60;;;;;;;18.61;100.00;101096.88;5091105;28;20217;-80
2023/08/17 06:03:45;;;;;;;8.23;7.53;;;;;;;18.63;100.00;101096.75;5087736;28;20251;-80
2023/08/17 06:06:12;;;;;;;7.70;7.10;;;;;;;18.64;100.00;101093.03;5091403;28;20257;-80
2023/08/17 06:08:38;;;;;;;8.47;7.87;;;;;;;18.65;100.00;101106.38;5085483;28;20215;-79
2023/08/17 06:11:05;;;;;;;8.33;7.53;;;;;;;18.64;100.00;101099.28;5091432;28;20209;-80
2023/08/17 06:13:31;;;;;;;9.80;9.00;;;;;;;18.66;100.00;101102.69;5091855;28;20745;-80
2023/08/17 06:15:59;;;;;;;10.10;9.17;;;;;;;18.67;100.00;101106.25;5092545;28;20731;-80
2023/08/17 06:18:25;;;;;;;9.83;8.93;;;;;;;18.68;100.00;101102.56;5091105;28;20211;-80
2023/08/17 06:20:53;;;;;;;9.83;8.83;;;;;;;18.68;100.00;101108.81;5087675;28;20197;-81
2023/08/17 06:23:20;;;;;;;9.27;8.53;;;;;;;18.67;100.00;101114.34;5087877;28;20237;-80
2023/08/17 06:25:46;;;;;;;9.07;8.27;;;;;;;18.65;100.00;101109.06;5090248;28;20209;-80
2023/08/17 06:28:13;;;;;;;12.10;9.80;;;;;;;18.67;100.00;101117.88;5091537;28;20208;-81
2023/08/17 06:30:39;;;;;;;9.17;8.47;;;;;;;18.69;100.00;101113.22;5090604;28;20366;-80
2023/08/17 06:33:07;;;;;;;9.27;8.27;;;;;;;18.69;100.00;101112.34;5085640;28;20240;-79
2023/08/17 06:35:33;;;;;;;9.33;8.53;;;;;;;18.71;100.00;101108.53;5087367;28;20907;-80
2023/08/17 06:38:00;;;;;;;9.37;8.50;;;;;;;18.72;100.00;101106.69;5094624;28;20204;-79
2023/08/17 06:40:26;;;;;;;9.17;8.13;;;;;;;18.72;100.00;101110.25;5087718;28;20216;-80
2023/08/17 06:42:54;;;;;;;9.40;8.40;;;;;;;18.73;100.00;101109.25;5091970;28;20625;-79
2023/08/17 06:45:22;;;;;;;9.07;7.73;;;;;;;18.76;100.00;101104.56;5090397;28;20587;-81
2023/08/17 06:47:49;;;;;;;8.47;7.77;;;;;;;18.76;100.00;101100.03;5092262;28;20206;-79
2023/08/17 06:50:17;;;;;;;9.20;8.30;;;;;;;18.77;100.00;101109.84;5093984;28;20202;-78
2023/08/17 06:52:43;;;;;;;9.60;8.67;;;;;;;18.79;100.00;101104.31;5092445;28;20231;-77
2023/08/17 06:55:11;;;;;;;8.73;7.90;;;;;;;18.79;100.00;101104.31;5094796;28;20215;-77
2023/08/17 06:57:37;;;;;;;8.33;7.67;;;;;;;18.83;100.00;101116.50;5090142;28;20668;-77
2023/08/17 07:00:05;;;;;;;8.43;7.63;;;;;;;18.84;100.00;101110.97;5093503;28;20672;-79
2023/08/17 07:02:32;;;;;;;9.30;8.43;;;;;;;18.84;100.00;101115.50;5091495;28;20199;-78
2023/08/17 07:04:59;;;;;;;7.93;7.23;;;;;;;18.84;100.00;101115.50;5094708;28;20203;-77
2023/08/17 07:07:27;;;;;;;9.67;8.13;;;;;;;18.86;100.00;101121.63;5094936;28;20872;-77
2023/08/17 07:09:53;;;;;;;8.33;7.70;;;;;;;18.87;100.00;101117.94;5088107;28;20199;-79
2023/08/17 07:12:20;;;;;;;8.13;7.30;;;;;;;18.88;100.00;101120.50;5094544;28;20212;-77
2023/08/17 07:14:46;;;;;;;7.43;6.73;;;;;;;18.89;100.00;101122.22;5098015;28;20216;-79
2023/08/17 07:17:12;;;;;;;7.23;6.53;;;;;;;18.92;100.00;101126.47;5093337;28;20217;-78
2023/08/17 07:19:39;;;;;;;7.13;6.47;;;;;;;18.94;100.00;101113.69;5087569;28;20208;-77
2023/08/17 07:22:05;;;;;;;7.13;6.53;;;;;;;18.98;100.00;101121.38;5094018;28;20297;-77
2023/08/17 07:24:33;;;;;;;6.80;6.20;;;;;;;19.00;100.00;101122.06;5092289;28;20214;-77
2023/08/17 07:27:00;;;;;;;6.50;5.90;;;;;;;19.02;100.00;101121.94;5094324;28;20204;-78
2023/08/17 07:29:26;;;;;;;5.93;5.43;;;;;;;19.05;100.00;101119.81;5090041;28;20202;-78
2023/08/17 07:31:54;;;;;;;6.10;5.43;;;;;;;19.06;100.00;101126.06;5093709;28;20202;-78
2023/08/17 07:34:20;;;;;;;5.27;4.80;;;;;;;19.08;100.00;101121.38;5095546;28;20226;-78
2023/08/17 07:36:47;;;;;;;5.47;4.97;;;;;;;19.08;100.00;101124.94;5091077;28;20213;-78
2023/08/17 07:39:13;;;;;;;4.93;4.50;;;;;;;19.08;100.00;101124.94;5092134;28;20244;-77
2023/08/17 07:41:41;;;;;;;4.80;4.30;;;;;;;19.10;100.00;101129.34;5093181;28;20206;-76
2023/08/17 07:44:08;;;;;;;6.13;4.77;;;;;;;19.10;100.00;101127.50;5093143;28;20526;-78
2023/08/17 07:46:34;;;;;;;4.67;4.27;;;;;;;19.12;100.00;101127.38;5093080;28;20218;-77
2023/08/17 07:49:01;;;;;;;5.37;4.27;;;;;;;19.13;100.00;101129.06;5091520;28;20215;-79
2023/08/17 07:51:29;;;;;;;7.07;4.73;;;;;;;19.14;100.00;101134.34;5085317;28;20208;-77
2023/08/17 07:53:56;;;;;;;5.13;4.60;;;;;;;19.13;100.00;101132.63;5090845;28;20227;-78
2023/08/17 07:56:22;;;;;;;5.33;4.83;;;;;;;19.13;100.00;101135.31;5094283;28;20289;-76
2023/08/17 07:58:50;;;;;;;5.43;4.93;;;;;;;19.15;100.00;101140.59;5090613;28;20211;-77
2023/08/17 08:01:17;;;;;;;5.10;4.60;;;;;;;19.16;100.00;101143.16;5092668;28;20209;-79
2023/08/17 08:03:43;;;;;;;7.07;4.70;;;;;;;19.14;100.00;101141.59;5093175;28;20225;-77
2023/08/17 08:06:09;;;;;;;4.67;4.23;;;;;;;19.15;100.00;101146.84;5091713;28;20218;-79
2023/08/17 08:08:36;;;;;;;4.83;4.40;;;;;;;19.17;100.00;101146.72;5092019;28;20215;-78
2023/08/17 08:11:04;;;;;;;4.87;4.20;;;;;;;19.20;100.00;101155.34;5093753;28;20210;-77
2023/08/17 08:13:30;;;;;;;5.03;4.57;;;;;;;19.23;100.00;101149.69;5094487;28;20252;-79
2023/08/17 08:15:59;;;;;;;5.20;4.70;;;;;;;19.23;100.00;101143.41;5093273;28;20201;-78
2023/08/17 08:18:26;;;;;;;5.93;4.20;;;;;;;19.22;100.00;101145.28;5090625;28;20684;-78
2023/08/17 08:20:52;;;;;;;5.20;4.80;;;;;;;19.23;100.00;101144.28;5088493;28;20301;-78
2023/08/17 08:23:19;;;;;;;5.43;4.03;;;;;;;19.24;100.00;101145.97;5093676;28;20231;-78
2023/08/17 08:25:45;;;;;;;4.23;3.93;;;;;;;19.27;100.00;101139.44;5090692;28;20221;-78
2023/08/17 08:28:12;;;;;;;4.33;4.03;;;;;;;19.27;100.00;101142.16;5085648;28;20220;-81
2023/08/17 08:30:38;;;;;;;4.23;3.80;;;;;;;19.27;100.00;101140.31;5087764;28;20220;-78
2023/08/17 08:33:06;;;;;;;4.77;4.37;;;;;;;19.29;100.00;101141.03;5090028;28;20235;-79
2023/08/17 08:35:33;;;;;;;4.60;4.20;;;;;;;19.32;100.00;101143.44;5089489;28;20212;-80
2023/08/17 08:37:59;;;;;;;5.00;4.40;;;;;;;19.34;100.00;101137.91;5090311;28;20576;-81
2023/08/17 08:40:28;;;;;;;4.43;4.03;;;;;;;19.36;100.00;101135.88;5088036;28;20209;-80
2023/08/17 08:42:55;;;;;;;4.70;4.30;;;;;;;19.36;100.00;101136.75;5088766;28;20240;-80
2023/08/17 08:45:22;;;;;;;5.00;4.50;;;;;;;19.38;100.00;101140.16;5088209;28;20212;-80
2023/08/17 08:47:49;;;;;;;5.37;4.33;;;;;;;19.42;100.00;101138.88;5085817;28;20207;-82
2023/08/17 08:50:20;;;;;;;6.20;4.70;;;;;;;19.43;100.00;101137.03;5089093;28;20212;-81
2023/08/17 08:52:54;;;;;;;4.53;4.10;;;;;;;19.46;100.00;101135.91;5088582;28;20232;-81
2023/08/17 08:55:24;;;;;;;5.33;4.83;;;;;;;19.47;100.00;101132.22;5086780;28;20204;-81
2023/08/17 08:57:53;;;;;;;7.20;4.87;;;;;;;19.47;100.00;101137.63;5087715;28;20198;-83
2023/08/17 09:00:19;;;;;;;4.40;4.00;;;;;;;19.48;100.00;101140.19;5089186;28;20283;-77
2023/08/17 09:02:46;;;;;;;4.80;4.27;;;;;;;19.51;100.00;101133.66;5084560;28;20234;-82
2023/08/17 09:05:14;;;;;;;5.37;4.87;;;;;;;19.54;100.00;101144.16;5088522;28;20213;-83
2023/08/17 09:07:43;;;;;;;6.87;4.90;;;;;;;19.53;100.00;101142.47;5088093;28;20589;-82
2023/08/17 09:10:10;;;;;;;5.30;4.70;;;;;;;19.50;100.00;101140.91;5088250;28;20207;-80
2023/08/17 09:12:37;;;;;;;7.17;5.53;;;;;;;19.48;100.00;101137.47;5091170;28;20214;-81
2023/08/17 09:15:04;;;;;;;5.10;4.67;;;;;;;19.48;100.00;101142.03;5092493;28;20240;-81
2023/08/17 09:17:34;;;;;;;4.73;4.33;;;;;;;19.48;100.00;101134.78;5090697;28;20264;-79
2023/08/17 09:20:00;;;;;;;6.10;4.80;;;;;;;19.50;100.00;101137.38;5093519;28;20197;-82
2023/08/17 09:22:38;;;;;;;5.70;5.20;;;;;;;19.49;100.00;101147.28;5090499;28;20602;-80
2023/08/17 09:25:08;;;;;;;6.27;5.57;;;;;;;19.49;100.00;101146.44;5092145;28;20207;-80
2023/08/17 09:27:34;;;;;;;5.47;4.97;;;;;;;19.46;100.00;101144.88;5091415;28;20205;-81
2023/08/17 09:30:06;;;;;;;5.70;5.10;;;;;;;19.46;100.00;101135.91;5087822;28;20210;-83
2023/08/17 09:32:33;;;;;;;4.77;4.47;;;;;;;19.45;100.00;101128.78;5089037;28;20739;-83
2023/08/17 09:35:01;;;;;;;5.97;5.47;;;;;;;19.42;100.00;101130.78;5089667;28;20228;-80
2023/08/17 09:37:28;;;;;;;6.53;5.93;;;;;;;19.40;100.00;101126.50;5095050;28;20211;-82
2023/08/17 09:39:55;;;;;;;5.90;5.40;;;;;;;19.38;100.00;101132.06;5090776;28;20296;-82
2023/08/17 09:42:24;;;;;;;6.20;5.70;;;;;;;19.36;100.00;101122.38;5093312;28;20210;-81
2023/08/17 09:44:51;;;;;;;6.13;5.57;;;;;;;19.36;100.00;101130.47;5089145;28;20222;-81
2023/08/17 09:47:18;;;;;;;5.70;5.27;;;;;;;19.34;100.00;101127.09;5093591;28;20221;-81
2023/08/17 09:49:49;;;;;;;5.20;4.20;;;;;;;19.34;100.00;101121.69;5089661;28;20669;-81
2023/08/17 09:52:15;;;;;;;4.53;4.17;;;;;;;19.33;100.00;101128.94;5089564;28;20201;-80
2023/08/17 09:54:42;;;;;;;4.63;4.00;;;;;;;19.33;100.00;101125.41;5091931;28;20229;-82
2023/08/17 09:57:10;;;;;;;12.03;4.27;;;;;;;19.33;100.00;101126.25;5088939;28;20214;-81
2023/08/17 09:59:38;;;;;;;4.07;3.77;;;;;;;19.36;100.00;101123.25;5093163;28;20808;-81
2023/08/17 10:02:11;;;;;;;3.83;3.43;;;;;;;19.36;100.00;101128.63;5089612;28;20206;-82
2023/08/17 10:04:38;;;;;;;5.00;3.43;;;;;;;19.37;100.00;101135.75;5092323;28;20303;-83
2023/08/17 10:07:07;;;;;;;4.43;3.60;;;;;;;19.36;100.00;101136.75;5092734;28;20205;-82
2023/08/17 10:09:39;;;;;;;3.23;2.93;;;;;;;19.37;100.00;101133.03;5091950;28;20215;-82
2023/08/17 10:12:12;;;;;;;3.20;2.90;;;;;;;19.35;100.00;101140.44;5092169;28;20213;-81
2023/08/17 10:14:50;;;;;;;3.63;2.97;;;;;;;19.34;100.00;101141.47;5091044;28;20248;-81
2023/08/17 10:17:23;;;;;;;3.37;2.90;;;;;;;19.36;100.00;101128.63;5090483;28;20197;-82
2023/08/17 10:19:53;;;;;;;2.77;2.57;;;;;;;19.35;100.00;101129.63;5088851;28;20209;-81
2023/08/17 10:22:29;;;;;;;3.33;3.10;;;;;;;19.36;100.00;101130.47;5092845;28;20209;-78
2023/08/17 10:24:58;;;;;;;3.00;2.80;;;;;;;19.36;100.00;101134.03;5093126;28;20195;-82
2023/08/17 10:27:26;;;;;;;5.37;2.97;;;;;;;19.37;100.00;101127.66;5093281;28;20584;-79
2023/08/17 10:29:54;;;;;;;3.70;3.30;;;;;;;19.41;100.00;101130.91;5095076;28;20687;-80
2023/08/17 10:32:23;;;;;;;3.30;3.10;;;;;;;19.43;100.00;101131.63;5093452;28;20742;-81
2023/08/17 10:34:50;;;;;;;4.57;3.10;;;;;;;19.45;100.00;101124.25;5094194;28;20231;-79
2023/08/17 10:37:19;;;;;;;2.90;2.70;;;;;;;19.49;100.00;101124.81;5092971;28;20238;-81
2023/08/17 10:39:46;;;;;;;3.30;3.10;;;;;;;19.52;100.00;101124.56;5094594;28;20208;-81
2023/08/17 10:42:14;;;;;;;3.30;3.10;;;;;;;19.58;100.00;101123.97;5093747;28;20806;-79
2023/08/17 10:44:42;;;;;;;3.67;3.43;;;;;;;19.60;100.00;101122.00;5095036;28;20227;-79
2023/08/17 10:47:24;;;;;;;3.40;3.20;;;;;;;19.60;100.00;101125.53;5093779;28;20308;-81
2023/08/17 10:49:51;;;;;;;3.40;3.10;;;;;;;19.61;100.00;101135.34;5091867;28;20238;-79
2023/08/17 10:52:29;;;;;;;3.70;3.40;;;;;;;19.60;100.00;101133.66;5088965;28;20640;-81
2023/08/17 10:54:56;;;;;;;3.20;3.00;;;;;;;19.58;100.00;101134.78;5093300;28;20215;-81
2023/08/17 10:57:29;;;;;;;3.50;3.27;;;;;;;19.55;100.00;101141.31;5091595;28;20543;-80
2023/08/17 11:00:24;;;;;;;3.90;3.60;;;;;;;19.56;100.00;101144.88;5093342;28;20202;-81
2023/08/17 11:02:56;;;;;;;4.20;3.90;;;;;;;19.54;100.00;101147.72;5092683;28;20588;-80
2023/08/17 11:05:36;;;;;;;6.20;4.17;;;;;;;19.51;100.00;101142.63;5094711;28;20214;-80
2023/08/17 11:08:03;;;;;;;5.17;4.77;;;;;;;19.48;100.00;101148.28;5092367;28;20718;-79
2023/08/17 11:10:30;;;;;;;6.03;5.37;;;;;;;19.42;100.00;101147.00;5093399;28;20285;-79
2023/08/17 11:12:59;;;;;;;5.40;5.00;;;;;;;19.39;100.00;101152.66;5092520;28;20276;-80
2023/08/17 11:15:26;;;;;;;6.30;5.80;;;;;;;19.36;100.00;101166.44;5089293;28;20315;-80
2023/08/17 11:17:53;;;;;;;7.10;6.50;;;;;;;19.29;100.00;101165.31;5086425;28;20212;-80
2023/08/17 11:20:23;;;;;;;6.93;6.30;;;;;;;19.22;100.00;101172.28;5093148;28;20903;-81